createdAt,value
2024-01-25T00:00:33.984Z,38.66
2024-01-25T00:01:33.916Z,38.65
2024-01-25T00:02:33.839Z,38.66
2024-01-25T00:03:33.948Z,38.69
2024-01-25T00:04:34.008Z,38.68
2024-01-25T00:05:33.964Z,38.70
2024-01-25T00:06:34.005Z,38.66
2024-01-25T00:07:33.893Z,38.62
2024-01-25T00:08:33.854Z,38.66
2024-01-25T00:09:33.967Z,38.67
2024-01-25T00:10:33.883Z,38.63
2024-01-25T00:11:33.865Z,38.63
2024-01-25T00:12:33.939Z,38.61
2024-01-25T00:13:33.868Z,38.61
2024-01-25T00:14:33.891Z,38.67
2024-01-25T00:15:33.968Z,38.65
2024-01-25T00:16:33.895Z,38.59
2024-01-25T00:17:33.918Z,38.62
2024-01-25T00:18:34.067Z,38.66
2024-01-25T00:19:34.046Z,38.66
2024-01-25T00:20:33.995Z,38.67
2024-01-25T00:21:33.904Z,38.62
2024-01-25T00:22:33.875Z,38.64
2024-01-25T00:23:33.875Z,38.65
2024-01-25T00:24:33.987Z,38.64
2024-01-25T00:25:33.866Z,38.65
2024-01-25T00:26:33.914Z,38.60
2024-01-25T00:27:33.940Z,38.61
2024-01-25T00:28:34.006Z,38.61
2024-01-25T00:29:33.893Z,38.60
2024-01-25T00:30:33.917Z,38.61
2024-01-25T00:31:33.880Z,38.60
2024-01-25T00:32:34.014Z,38.60
2024-01-25T00:33:34.041Z,38.63
2024-01-25T00:34:34.169Z,38.60
2024-01-25T00:35:34.031Z,38.57
2024-01-25T00:36:33.990Z,38.61
2024-01-25T00:37:33.904Z,38.58
2024-01-25T00:38:33.913Z,38.61
2024-01-25T00:39:33.934Z,38.58
2024-01-25T00:40:33.964Z,38.57
2024-01-25T00:41:33.913Z,38.60
2024-01-25T00:42:33.993Z,38.56
2024-01-25T00:43:33.901Z,38.57
2024-01-25T00:44:33.980Z,38.56
2024-01-25T00:45:33.971Z,38.56
2024-01-25T00:46:33.898Z,38.50
2024-01-25T00:47:33.999Z,38.56
2024-01-25T00:48:34.119Z,38.56
2024-01-25T00:49:34.064Z,38.53
2024-01-25T00:50:34.147Z,38.53
2024-01-25T00:51:34.041Z,38.51
2024-01-25T00:52:34.032Z,38.57
2024-01-25T00:53:34.041Z,38.57
2024-01-25T00:54:34.129Z,38.53
2024-01-25T00:55:34.222Z,38.51
2024-01-25T00:56:34.166Z,38.57
2024-01-25T00:57:34.153Z,38.53
2024-01-25T00:58:34.133Z,38.50
2024-01-25T00:59:34.149Z,38.55
2024-01-25T01:00:34.324Z,38.53
2024-01-25T01:01:34.307Z,38.51
2024-01-25T01:02:34.251Z,38.52
2024-01-25T01:03:34.296Z,38.50
2024-01-25T01:04:46.741Z,38.48
2024-01-25T01:05:35.400Z,38.50
2024-01-25T01:06:34.380Z,38.48
2024-01-25T01:07:34.448Z,38.52
2024-01-25T01:08:34.220Z,38.52
2024-01-25T01:09:34.235Z,38.55
2024-01-25T01:10:34.311Z,38.47
2024-01-25T01:11:34.239Z,38.49
2024-01-25T01:12:34.327Z,38.51
2024-01-25T01:13:34.304Z,38.50
2024-01-25T01:14:34.239Z,38.51
2024-01-25T01:15:34.283Z,38.51
2024-01-25T01:16:34.234Z,38.46
2024-01-25T01:17:34.284Z,38.50
2024-01-25T01:18:34.403Z,38.49
2024-01-25T01:19:34.323Z,38.52
2024-01-25T01:20:34.288Z,38.50
2024-01-25T01:21:34.303Z,38.48
2024-01-25T01:22:34.293Z,38.48
2024-01-25T01:23:34.284Z,38.50
2024-01-25T01:24:34.332Z,38.48
2024-01-25T01:25:34.330Z,38.46
2024-01-25T01:26:34.337Z,38.49
2024-01-25T01:27:34.396Z,38.46
2024-01-25T01:28:34.363Z,38.51
2024-01-25T01:29:34.408Z,38.53
2024-01-25T01:30:34.466Z,38.47
2024-01-25T01:31:34.378Z,38.46
2024-01-25T01:32:34.477Z,38.48
2024-01-25T01:33:34.496Z,38.46
2024-01-25T01:34:34.803Z,38.43
2024-01-25T01:35:34.462Z,38.39
2024-01-25T01:36:34.477Z,38.36
2024-01-25T01:37:34.441Z,38.31
2024-01-25T01:38:34.463Z,38.30
2024-01-25T01:39:34.491Z,38.29
2024-01-25T01:40:34.564Z,38.24
2024-01-25T01:41:34.537Z,38.23
2024-01-25T01:42:34.620Z,38.20
2024-01-25T01:43:34.610Z,38.16
2024-01-25T01:44:34.697Z,38.19
2024-01-25T01:45:34.768Z,38.13
2024-01-25T01:46:34.811Z,38.07
2024-01-25T01:47:34.940Z,38.08
2024-01-25T01:48:35.193Z,38.03
2024-01-25T01:49:35.187Z,37.99
2024-01-25T01:50:35.247Z,37.98
2024-01-25T01:51:35.232Z,37.96
2024-01-25T01:52:35.156Z,37.96
2024-01-25T01:53:35.203Z,37.94
2024-01-25T01:54:35.304Z,37.91
2024-01-25T01:55:35.273Z,37.86
2024-01-25T01:56:35.317Z,37.81
2024-01-25T01:57:35.386Z,37.78
2024-01-25T01:58:35.372Z,37.72
2024-01-25T01:59:35.392Z,37.72
2024-01-25T02:00:35.457Z,37.65
2024-01-25T02:01:35.491Z,37.64
2024-01-25T02:02:35.444Z,37.60
2024-01-25T02:03:35.518Z,37.54
2024-01-25T02:04:35.534Z,37.55
2024-01-25T02:05:35.451Z,37.48
2024-01-25T02:06:35.646Z,37.42
2024-01-25T02:07:35.480Z,37.41
2024-01-25T02:08:35.484Z,37.33
2024-01-25T02:09:35.526Z,37.31
2024-01-25T02:10:35.511Z,37.27
2024-01-25T02:11:35.534Z,37.25
2024-01-25T02:12:35.612Z,37.20
2024-01-25T02:13:35.565Z,37.11
2024-01-25T02:14:35.584Z,37.10
2024-01-25T02:15:35.685Z,37.02
2024-01-25T02:16:35.674Z,37.02
2024-01-25T02:17:35.768Z,36.98
2024-01-25T02:18:35.856Z,36.89
2024-01-25T02:19:35.724Z,36.88
2024-01-25T02:20:35.695Z,36.86
2024-01-25T02:21:35.762Z,36.83
2024-01-25T02:22:35.798Z,36.73
2024-01-25T02:23:35.846Z,36.71
2024-01-25T02:24:35.954Z,36.74
2024-01-25T02:25:35.990Z,36.67
2024-01-25T02:26:36.039Z,36.66
2024-01-25T02:27:36.205Z,36.61
2024-01-25T02:28:36.288Z,36.57
2024-01-25T02:29:36.239Z,36.52
2024-01-25T02:30:36.374Z,36.47
2024-01-25T02:31:36.376Z,36.46
2024-01-25T02:32:36.508Z,36.42
2024-01-25T02:33:36.730Z,36.39
2024-01-25T02:34:36.689Z,36.38
2024-01-25T02:35:36.678Z,36.37
2024-01-25T02:36:36.774Z,36.34
2024-01-25T02:37:36.808Z,36.28
2024-01-25T02:38:36.882Z,36.25
2024-01-25T02:39:37.001Z,36.24
2024-01-25T02:40:37.002Z,36.22
2024-01-25T02:41:37.059Z,36.18
2024-01-25T02:42:37.147Z,36.15
2024-01-25T02:43:37.187Z,36.10
2024-01-25T02:44:37.262Z,36.09
2024-01-25T02:45:37.351Z,36.13
2024-01-25T02:46:37.501Z,36.05
2024-01-25T02:47:37.519Z,36.03
2024-01-25T02:48:37.571Z,36.03
2024-01-25T02:49:37.839Z,36.01
2024-01-25T02:50:37.562Z,35.99
2024-01-25T02:51:37.667Z,35.94
2024-01-25T02:52:37.666Z,35.90
2024-01-25T02:53:37.721Z,35.90
2024-01-25T02:54:37.870Z,35.85
2024-01-25T02:55:37.824Z,35.84
2024-01-25T02:56:37.866Z,35.83
2024-01-25T02:57:37.997Z,35.77
2024-01-25T02:58:37.995Z,35.79
2024-01-25T02:59:38.015Z,35.78
2024-01-25T03:00:38.183Z,35.74
2024-01-25T03:01:38.156Z,35.72
2024-01-25T03:02:38.138Z,35.66
2024-01-25T03:03:38.285Z,35.66
2024-01-25T03:04:38.350Z,35.64
2024-01-25T03:05:38.366Z,35.61
2024-01-25T03:06:38.494Z,35.62
2024-01-25T03:07:38.409Z,35.61
2024-01-25T03:08:38.382Z,35.61
2024-01-25T03:09:38.465Z,35.60
2024-01-25T03:10:38.446Z,35.59
2024-01-25T03:11:38.496Z,35.58
2024-01-25T03:12:38.639Z,35.53
2024-01-25T03:13:38.592Z,35.53
2024-01-25T03:14:38.617Z,35.47
2024-01-25T03:15:38.666Z,35.47
2024-01-25T03:16:38.679Z,35.50
2024-01-25T03:17:38.744Z,35.46
2024-01-25T03:18:38.840Z,35.44
2024-01-25T03:19:38.863Z,35.38
2024-01-25T03:20:38.802Z,35.43
2024-01-25T03:21:38.839Z,35.39
2024-01-25T03:22:38.869Z,35.39
2024-01-25T03:23:38.923Z,35.39
2024-01-25T03:24:39.006Z,35.40
2024-01-25T03:25:38.970Z,35.36
2024-01-25T03:26:38.995Z,35.35
2024-01-25T03:27:39.092Z,35.34
2024-01-25T03:28:39.067Z,35.31
2024-01-25T03:29:39.103Z,35.34
2024-01-25T03:30:39.154Z,35.28
2024-01-25T03:31:39.161Z,35.32
2024-01-25T03:32:39.237Z,35.28
2024-01-25T03:33:39.428Z,35.25
2024-01-25T03:34:39.398Z,35.23
2024-01-25T03:35:39.304Z,35.24
2024-01-25T03:36:39.339Z,35.25
2024-01-25T03:37:39.436Z,35.19
2024-01-25T03:38:39.384Z,35.21
2024-01-25T03:39:39.462Z,35.21
2024-01-25T03:40:39.439Z,35.19
2024-01-25T03:41:39.473Z,35.17
2024-01-25T03:42:39.532Z,35.19
2024-01-25T03:43:44.179Z,35.16
2024-01-25T03:44:40.541Z,35.15
2024-01-25T03:45:39.563Z,35.13
2024-01-25T03:46:39.544Z,35.15
2024-01-25T03:47:39.580Z,35.13
2024-01-25T03:48:39.567Z,35.12
2024-01-25T03:49:39.630Z,35.14
2024-01-25T03:50:39.639Z,35.14
2024-01-25T03:51:39.643Z,35.08
2024-01-25T03:52:39.557Z,35.08
2024-01-25T03:53:39.556Z,35.05
2024-01-25T03:54:39.581Z,35.07
2024-01-25T03:55:39.550Z,35.08
2024-01-25T03:56:39.595Z,35.08
2024-01-25T03:57:39.662Z,35.06
2024-01-25T03:58:39.642Z,35.06
2024-01-25T03:59:39.569Z,35.05
2024-01-25T04:00:39.708Z,35.02
2024-01-25T04:01:39.699Z,35.01
2024-01-25T04:02:39.555Z,35.02
2024-01-25T04:03:39.664Z,35.03
2024-01-25T04:04:39.608Z,35.00
2024-01-25T04:05:39.629Z,35.00
2024-01-25T04:06:39.604Z,35.00
2024-01-25T04:07:39.578Z,34.98
2024-01-25T04:08:39.580Z,34.93
2024-01-25T04:09:39.605Z,34.97
2024-01-25T04:10:39.602Z,34.95
2024-01-25T04:11:39.611Z,34.97
2024-01-25T04:12:39.662Z,34.96
2024-01-25T04:13:39.628Z,35.00
2024-01-25T04:14:39.675Z,34.99
2024-01-25T04:15:39.752Z,34.96
2024-01-25T04:16:39.688Z,34.92
2024-01-25T04:17:39.801Z,34.96
2024-01-25T04:18:39.917Z,34.91
2024-01-25T04:19:39.903Z,34.93
2024-01-25T04:20:39.844Z,34.95
2024-01-25T04:21:39.816Z,34.95
2024-01-25T04:22:39.828Z,34.96
2024-01-25T04:23:39.831Z,34.96
2024-01-25T04:24:39.876Z,34.94
2024-01-25T04:25:39.940Z,34.96
2024-01-25T04:26:39.919Z,34.92
2024-01-25T04:27:39.952Z,34.94
2024-01-25T04:28:39.945Z,34.96
2024-01-25T04:29:39.974Z,34.91
2024-01-25T04:30:40.030Z,34.94
2024-01-25T04:31:40.033Z,34.92
2024-01-25T04:32:40.065Z,34.90
2024-01-25T04:33:40.790Z,34.88
2024-01-25T04:34:40.175Z,34.95
2024-01-25T04:35:40.256Z,34.96
2024-01-25T04:36:40.192Z,34.95
2024-01-25T04:37:40.157Z,34.90
2024-01-25T04:38:40.160Z,34.94
2024-01-25T04:39:40.223Z,34.87
2024-01-25T04:40:40.217Z,34.91
2024-01-25T04:41:40.235Z,34.94
2024-01-25T04:42:40.279Z,34.91
2024-01-25T04:43:40.264Z,34.92
2024-01-25T04:44:40.277Z,34.95
2024-01-25T04:45:40.348Z,34.92
2024-01-25T04:46:40.349Z,34.92
2024-01-25T04:47:40.370Z,34.86
2024-01-25T04:48:47.826Z,34.94
2024-01-25T04:49:47.725Z,34.90
2024-01-25T04:50:47.721Z,34.92
2024-01-25T04:51:47.713Z,34.87
2024-01-25T04:52:47.668Z,34.88
2024-01-25T04:53:47.659Z,34.95
2024-01-25T04:54:47.730Z,34.87
2024-01-25T04:55:47.661Z,34.91
2024-01-25T04:56:47.667Z,34.87
2024-01-25T04:57:47.679Z,34.84
2024-01-25T04:58:47.667Z,34.84
2024-01-25T04:59:47.683Z,34.82
2024-01-25T05:00:47.746Z,34.86
2024-01-25T05:01:47.762Z,34.87
2024-01-25T05:02:48.256Z,34.84
2024-01-25T05:03:48.417Z,34.84
2024-01-25T05:04:47.741Z,34.86
2024-01-25T05:05:47.703Z,34.82
2024-01-25T05:06:47.759Z,34.87
2024-01-25T05:07:47.885Z,34.81
2024-01-25T05:08:47.775Z,34.84
2024-01-25T05:09:47.743Z,34.84
2024-01-25T05:10:47.697Z,34.81
2024-01-25T05:11:47.697Z,34.81
2024-01-25T05:12:47.739Z,34.78
2024-01-25T05:13:47.696Z,34.84
2024-01-25T05:14:47.705Z,34.81
2024-01-25T05:15:47.787Z,34.79
2024-01-25T05:16:47.745Z,34.77
2024-01-25T05:17:47.911Z,34.83
2024-01-25T05:18:47.911Z,34.82
2024-01-25T05:19:48.070Z,34.81
2024-01-25T05:20:47.821Z,34.80
2024-01-25T05:21:47.845Z,34.74
2024-01-25T05:22:47.833Z,34.82
2024-01-25T05:23:47.840Z,34.84
2024-01-25T05:24:53.826Z,34.79
2024-01-25T05:25:47.859Z,34.78
2024-01-25T05:26:47.875Z,34.79
2024-01-25T05:27:47.897Z,34.79
2024-01-25T05:28:47.900Z,34.81
2024-01-25T05:29:48.745Z,34.80
2024-01-25T05:30:47.909Z,34.76
2024-01-25T05:31:47.908Z,34.76
2024-01-25T05:32:47.983Z,34.75
2024-01-25T05:33:48.037Z,34.80
2024-01-25T05:34:47.973Z,34.78
2024-01-25T05:35:47.924Z,34.77
2024-01-25T05:36:47.933Z,34.77
2024-01-25T05:37:47.875Z,34.72
2024-01-25T05:38:47.883Z,34.74
2024-01-25T05:39:58.072Z,34.76
2024-01-25T05:40:47.880Z,34.77
2024-01-25T05:41:47.898Z,34.78
2024-01-25T05:42:47.952Z,34.78
2024-01-25T05:43:47.873Z,34.79
2024-01-25T05:44:47.871Z,34.72
2024-01-25T05:45:47.927Z,34.79
2024-01-25T05:46:47.887Z,34.75
2024-01-25T05:47:48.019Z,34.75
2024-01-25T05:48:48.087Z,34.74
2024-01-25T05:49:52.966Z,34.75
2024-01-25T05:50:47.884Z,34.73
2024-01-25T05:51:48.066Z,34.71
2024-01-25T05:52:47.909Z,34.69
2024-01-25T05:53:47.886Z,34.70
2024-01-25T05:54:47.936Z,34.75
2024-01-25T05:55:47.882Z,34.75
2024-01-25T05:56:47.911Z,34.74
2024-01-25T05:57:47.948Z,34.68
2024-01-25T05:58:47.931Z,34.74
2024-01-25T05:59:47.930Z,34.75
2024-01-25T06:00:48.067Z,34.71
2024-01-25T06:01:48.060Z,34.71
2024-01-25T06:02:47.901Z,34.72
2024-01-25T06:03:47.990Z,34.74
2024-01-25T06:04:48.139Z,34.68
2024-01-25T06:05:48.074Z,34.70
2024-01-25T06:06:48.153Z,34.70
2024-01-25T06:07:48.132Z,34.67
2024-01-25T06:08:54.950Z,34.71
2024-01-25T06:09:49.029Z,34.71
2024-01-25T06:10:47.933Z,34.71
2024-01-25T06:11:47.918Z,34.67
2024-01-25T06:12:48.055Z,34.66
2024-01-25T06:13:47.962Z,34.71
2024-01-25T06:14:47.960Z,34.62
2024-01-25T06:15:48.060Z,34.70
2024-01-25T06:16:47.943Z,34.68
2024-01-25T06:17:47.963Z,34.70
2024-01-25T06:18:48.035Z,34.67
2024-01-25T06:19:48.019Z,34.75
2024-01-25T06:20:47.951Z,34.72
2024-01-25T06:21:47.948Z,34.70
2024-01-25T06:22:47.924Z,38.24
2024-01-25T06:24:35.206Z,37.03
2024-01-25T06:25:35.247Z,39.29
2024-01-25T06:30:27.610Z,40.19
2024-01-25T06:31:27.809Z,39.26
2024-01-25T06:32:27.601Z,40.26
2024-01-25T06:33:27.726Z,42.26
2024-01-25T06:34:27.728Z,35.68
2024-01-25T06:36:04.520Z,36.27
2024-01-25T06:37:04.573Z,35.77
2024-01-25T06:38:04.471Z,35.36
2024-01-25T06:39:04.490Z,35.35
2024-01-25T06:40:04.522Z,35.20
2024-01-25T06:41:04.508Z,35.44
2024-01-25T06:42:04.477Z,35.29
2024-01-25T06:43:04.549Z,35.25
2024-01-25T06:44:04.920Z,35.22
2024-01-25T06:45:04.575Z,35.21
2024-01-25T06:46:04.652Z,35.31
2024-01-25T06:47:04.629Z,35.39
2024-01-25T06:48:04.661Z,34.27
2024-01-25T06:49:04.842Z,33.55
2024-01-25T06:50:04.815Z,33.45
2024-01-25T06:51:04.821Z,35.19
2024-01-25T06:52:05.009Z,35.50
2024-01-25T06:53:04.944Z,35.46
2024-01-25T06:54:04.999Z,36.35
2024-01-25T06:55:05.125Z,36.41
2024-01-25T06:56:05.118Z,36.37
2024-01-25T06:57:05.190Z,36.46
2024-01-25T06:58:05.249Z,36.45
2024-01-25T06:59:05.289Z,36.56
2024-01-25T07:00:05.333Z,36.89
2024-01-25T07:01:05.371Z,37.30
2024-01-25T07:02:05.462Z,37.97
2024-01-25T07:03:05.460Z,38.00
2024-01-25T07:04:05.626Z,38.68
2024-01-25T07:05:05.433Z,38.95
2024-01-25T07:06:05.464Z,39.15
2024-01-25T07:07:05.601Z,39.30
2024-01-25T07:08:05.480Z,39.55
2024-01-25T07:09:05.489Z,39.65
2024-01-25T07:10:05.588Z,40.90
2024-01-25T07:11:05.496Z,41.49
2024-01-25T07:12:05.502Z,41.41
2024-01-25T07:13:05.634Z,41.41
2024-01-25T07:14:05.544Z,41.71
2024-01-25T07:15:05.600Z,41.76
2024-01-25T07:16:05.722Z,41.94
2024-01-25T07:17:05.734Z,42.09
2024-01-25T07:18:05.851Z,42.24
2024-01-25T07:19:06.039Z,42.44
2024-01-25T07:20:06.046Z,42.47
2024-01-25T07:21:05.988Z,42.49
2024-01-25T07:22:06.108Z,42.73
2024-01-25T07:23:06.122Z,42.84
2024-01-25T07:24:06.188Z,43.09
2024-01-25T07:25:06.329Z,43.27
2024-01-25T07:26:06.298Z,43.48
2024-01-25T07:27:06.364Z,43.55
2024-01-25T07:28:06.429Z,43.69
2024-01-25T07:29:06.455Z,43.68
2024-01-25T07:30:06.525Z,43.84
2024-01-25T07:31:06.572Z,43.86
2024-01-25T07:32:06.603Z,44.04
2024-01-25T07:33:06.707Z,44.07
2024-01-25T07:34:06.806Z,44.24
2024-01-25T07:35:06.834Z,44.32
2024-01-25T07:36:06.788Z,44.41
2024-01-25T07:37:06.875Z,44.47
2024-01-25T07:38:06.852Z,44.73
2024-01-25T07:39:06.908Z,44.77
2024-01-25T07:40:07.035Z,44.89
2024-01-25T07:41:06.987Z,44.92
2024-01-25T07:42:07.032Z,45.06
2024-01-25T07:43:07.110Z,45.05
2024-01-25T07:44:07.098Z,45.18
2024-01-25T07:45:07.162Z,45.25
2024-01-25T07:46:07.173Z,45.29
2024-01-25T07:47:07.187Z,45.48
2024-01-25T07:48:14.308Z,45.51
2024-01-25T07:49:08.320Z,45.57
2024-01-25T07:50:07.379Z,45.62
2024-01-25T07:51:07.343Z,45.60
2024-01-25T07:52:07.277Z,45.77
2024-01-25T07:53:07.240Z,45.88
2024-01-25T07:54:07.228Z,45.82
2024-01-25T07:55:07.285Z,45.70
2024-01-25T07:56:07.219Z,45.45
2024-01-25T07:57:07.249Z,45.28
2024-01-25T07:58:07.278Z,45.24
2024-01-25T07:59:07.265Z,45.27
2024-01-25T08:00:07.244Z,45.38
2024-01-25T08:01:07.466Z,45.57
2024-01-25T08:02:07.419Z,45.52
2024-01-25T08:03:07.248Z,45.56
2024-01-25T08:04:07.351Z,45.58
2024-01-25T08:05:07.411Z,45.73
2024-01-25T08:06:07.353Z,45.77
2024-01-25T08:07:07.437Z,45.68
2024-01-25T08:08:07.364Z,45.78
2024-01-25T08:09:07.260Z,45.75
2024-01-25T08:10:07.328Z,45.78
2024-01-25T08:11:07.296Z,45.87
2024-01-25T08:12:07.346Z,45.95
2024-01-25T08:13:08.152Z,46.00
2024-01-25T08:14:07.445Z,45.95
2024-01-25T08:15:07.501Z,46.03
2024-01-25T08:16:07.403Z,46.13
2024-01-25T08:17:07.443Z,46.14
2024-01-25T08:18:07.629Z,46.15
2024-01-25T08:19:07.583Z,46.23
2024-01-25T08:20:07.564Z,46.21
2024-01-25T08:21:07.511Z,46.28
2024-01-25T08:22:07.531Z,46.33
2024-01-25T08:23:07.481Z,46.59
2024-01-25T08:24:07.501Z,46.45
2024-01-25T08:25:07.585Z,46.56
2024-01-25T08:26:07.545Z,46.67
2024-01-25T08:27:07.562Z,46.69
2024-01-25T08:28:07.633Z,46.75
2024-01-25T08:29:07.586Z,46.79
2024-01-25T08:30:07.659Z,46.81
2024-01-25T08:31:07.682Z,46.89
2024-01-25T08:32:07.618Z,46.95
2024-01-25T08:33:07.801Z,47.00
2024-01-25T08:34:07.990Z,47.05
2024-01-25T08:35:07.836Z,46.98
2024-01-25T08:36:07.692Z,47.08
2024-01-25T08:37:07.783Z,47.06
2024-01-25T08:38:07.695Z,47.13
2024-01-25T08:39:07.729Z,47.22
2024-01-25T08:40:07.911Z,47.35
2024-01-25T08:41:07.751Z,47.37
2024-01-25T08:42:07.744Z,47.47
2024-01-25T08:43:07.829Z,47.60
2024-01-25T08:44:07.766Z,47.72
2024-01-25T08:45:07.787Z,47.72
2024-01-25T08:46:07.826Z,47.84
2024-01-25T08:47:07.863Z,47.88
2024-01-25T08:48:07.944Z,47.75
2024-01-25T08:49:07.974Z,47.78
2024-01-25T08:50:07.997Z,47.53
2024-01-25T08:51:07.880Z,47.33
2024-01-25T08:52:07.951Z,47.28
2024-01-25T08:53:07.920Z,47.23
2024-01-25T08:54:07.933Z,47.13
2024-01-25T08:55:08.049Z,47.08
2024-01-25T08:56:08.046Z,47.06
2024-01-25T08:57:08.139Z,47.06
2024-01-25T08:58:08.126Z,47.11
2024-01-25T08:59:08.147Z,47.10
2024-01-25T09:00:08.211Z,47.11
2024-01-25T09:01:08.353Z,47.07
2024-01-25T09:02:08.435Z,47.11
2024-01-25T09:03:08.406Z,47.12
2024-01-25T09:04:08.493Z,47.06
2024-01-25T09:05:08.916Z,47.05
2024-01-25T09:06:08.723Z,47.10
2024-01-25T09:07:08.724Z,47.12
2024-01-25T09:08:08.739Z,47.08
2024-01-25T09:09:08.741Z,47.06
2024-01-25T09:10:08.938Z,47.06
2024-01-25T09:11:08.874Z,47.08
2024-01-25T09:12:08.982Z,47.14
2024-01-25T09:13:09.033Z,47.10
2024-01-25T09:14:09.067Z,47.15
2024-01-25T09:15:09.150Z,47.19
2024-01-25T09:16:09.254Z,47.10
2024-01-25T09:17:09.343Z,47.11
2024-01-25T09:18:09.394Z,47.13
2024-01-25T09:19:10.112Z,47.15
2024-01-25T09:20:09.523Z,47.14
2024-01-25T09:21:09.452Z,47.08
2024-01-25T09:22:09.526Z,47.08
2024-01-25T09:23:09.463Z,47.09
2024-01-25T09:24:09.491Z,47.06
2024-01-25T09:25:10.147Z,47.06
2024-01-25T09:26:09.489Z,47.02
2024-01-25T09:27:09.497Z,47.06
2024-01-25T09:28:09.608Z,47.07
2024-01-25T09:29:09.485Z,47.04
2024-01-25T09:30:09.500Z,47.06
2024-01-25T09:31:09.577Z,47.02
2024-01-25T09:32:09.504Z,47.02
2024-01-25T09:33:09.627Z,47.00
2024-01-25T09:34:09.728Z,46.99
2024-01-25T09:35:09.657Z,46.98
2024-01-25T09:36:09.704Z,47.00
2024-01-25T09:37:09.691Z,46.95
2024-01-25T09:38:09.605Z,47.02
2024-01-25T09:39:09.603Z,46.95
2024-01-25T09:40:09.711Z,46.92
2024-01-25T09:41:09.655Z,46.95
2024-01-25T09:42:09.704Z,46.91
2024-01-25T09:43:09.745Z,46.86
2024-01-25T09:44:09.703Z,46.88
2024-01-25T09:45:09.761Z,46.86
2024-01-25T09:46:09.811Z,46.85
2024-01-25T09:47:09.814Z,46.85
2024-01-25T09:48:12.654Z,46.80
2024-01-25T09:49:09.981Z,46.84
2024-01-25T09:50:09.972Z,46.77
2024-01-25T09:51:09.832Z,46.75
2024-01-25T09:52:09.902Z,46.74
2024-01-25T09:53:09.838Z,46.77
2024-01-25T09:54:09.809Z,46.74
2024-01-25T09:55:09.873Z,46.70
2024-01-25T09:56:09.816Z,46.74
2024-01-25T09:57:09.815Z,46.66
2024-01-25T09:58:09.916Z,46.73
2024-01-25T09:59:09.846Z,46.82
2024-01-25T10:00:09.840Z,46.92
2024-01-25T10:01:09.873Z,47.37
2024-01-25T10:02:09.922Z,47.34
2024-01-25T10:03:09.829Z,47.30
2024-01-25T10:04:10.027Z,47.45
2024-01-25T10:05:10.023Z,47.64
2024-01-25T10:06:09.990Z,47.76
2024-01-25T10:07:09.923Z,47.69
2024-01-25T10:08:09.984Z,47.80
2024-01-25T10:09:09.838Z,47.83
2024-01-25T10:10:09.961Z,48.05
2024-01-25T10:11:09.883Z,48.05
2024-01-25T10:12:17.195Z,48.19
2024-01-25T10:13:10.892Z,48.26
2024-01-25T10:14:09.854Z,48.36
2024-01-25T10:15:09.869Z,48.43
2024-01-25T10:16:09.912Z,48.35
2024-01-25T10:17:09.946Z,48.49
2024-01-25T10:19:10.206Z,48.65
2024-01-25T10:20:09.998Z,48.52
2024-01-25T10:21:09.955Z,48.62
2024-01-25T10:22:10.091Z,48.70
2024-01-25T10:23:09.966Z,48.83
2024-01-25T10:24:10.004Z,48.83
2024-01-25T10:25:10.008Z,48.87
2024-01-25T10:26:09.865Z,48.85
2024-01-25T10:27:09.916Z,48.91
2024-01-25T10:28:09.972Z,49.01
2024-01-25T10:29:09.939Z,49.10
2024-01-25T10:30:09.880Z,49.11
2024-01-25T10:31:10.053Z,49.11
2024-01-25T10:32:09.893Z,49.23
2024-01-25T10:33:10.023Z,49.26
2024-01-25T10:34:09.909Z,49.28
2024-01-25T10:35:10.067Z,49.40
2024-01-25T10:36:09.889Z,49.44
2024-01-25T10:37:10.032Z,49.40
2024-01-25T10:38:09.864Z,49.52
2024-01-25T10:39:09.878Z,49.52
2024-01-25T10:40:09.903Z,49.58
2024-01-25T10:41:09.894Z,49.68
2024-01-25T10:42:09.895Z,49.72
2024-01-25T10:43:09.896Z,49.82
2024-01-25T10:44:09.926Z,49.88
2024-01-25T10:45:09.965Z,49.89
2024-01-25T10:46:10.155Z,49.72
2024-01-25T10:47:10.066Z,49.30
2024-01-25T10:48:10.167Z,49.32
2024-01-25T10:49:10.270Z,47.51
2024-01-25T10:50:10.352Z,45.05
2024-01-25T10:51:10.241Z,45.36
2024-01-25T10:52:10.296Z,42.83
2024-01-25T10:53:10.279Z,45.39
2024-01-25T10:54:10.266Z,46.14
2024-01-25T10:55:10.335Z,46.52
2024-01-25T10:56:10.315Z,46.62
2024-01-25T10:57:10.338Z,46.77
2024-01-25T10:58:10.449Z,46.86
2024-01-25T10:59:10.402Z,46.89
2024-01-25T11:00:10.437Z,46.78
2024-01-25T11:01:11.720Z,46.86
2024-01-25T11:02:10.622Z,46.70
2024-01-25T11:03:10.531Z,46.70
2024-01-25T11:04:10.594Z,46.59
2024-01-25T11:05:10.637Z,46.44
2024-01-25T11:06:10.703Z,46.25
2024-01-25T11:07:10.635Z,46.12
2024-01-25T11:08:10.513Z,45.91
2024-01-25T11:09:17.848Z,45.85
2024-01-25T11:10:17.932Z,45.67
2024-01-25T11:11:17.852Z,45.65
2024-01-25T11:12:17.872Z,45.75
2024-01-25T11:13:17.860Z,45.88
2024-01-25T11:14:17.821Z,45.98
2024-01-25T11:15:17.824Z,46.07
2024-01-25T11:16:18.130Z,46.26
2024-01-25T11:17:17.942Z,46.33
2024-01-25T11:18:18.089Z,46.42
2024-01-25T11:19:18.148Z,46.52
2024-01-25T11:20:18.107Z,46.72
2024-01-25T11:21:18.052Z,46.73
2024-01-25T11:22:23.159Z,46.91
2024-01-25T11:23:18.928Z,46.92
2024-01-25T11:24:18.091Z,47.12
2024-01-25T11:25:18.250Z,47.23
2024-01-25T11:26:18.099Z,47.30
2024-01-25T11:27:18.126Z,47.31
2024-01-25T11:28:18.236Z,47.49
2024-01-25T11:29:18.148Z,47.54
2024-01-25T11:30:18.120Z,47.63
2024-01-25T11:31:18.222Z,47.78
2024-01-25T11:32:18.174Z,47.81
2024-01-25T11:33:18.278Z,47.99
2024-01-25T11:34:18.326Z,48.08
2024-01-25T11:35:18.413Z,48.12
2024-01-25T11:36:18.139Z,48.19
2024-01-25T11:37:18.188Z,48.25
2024-01-25T11:38:18.161Z,48.38
2024-01-25T11:39:18.154Z,48.44
2024-01-25T11:40:18.174Z,48.54
2024-01-25T11:41:18.161Z,48.60
2024-01-25T11:42:18.127Z,48.58
2024-01-25T11:43:18.223Z,48.58
2024-01-25T11:44:18.129Z,48.58
2024-01-25T11:45:18.174Z,48.67
2024-01-25T11:46:18.257Z,48.28
2024-01-25T11:47:18.191Z,48.25
2024-01-25T11:48:18.293Z,48.11
2024-01-25T11:49:18.348Z,48.00
2024-01-25T11:50:18.392Z,47.93
2024-01-25T11:51:18.328Z,47.64
2024-01-25T11:52:18.375Z,47.51
2024-01-25T11:53:18.391Z,46.79
2024-01-25T11:54:18.414Z,45.21
2024-01-25T11:55:18.507Z,41.43
2024-01-25T11:56:18.534Z,38.02
2024-01-25T11:57:18.656Z,35.84
2024-01-25T11:58:18.702Z,35.81
2024-01-25T11:59:18.697Z,36.87
2024-01-25T12:00:18.702Z,36.75
2024-01-25T12:01:18.768Z,35.31
2024-01-25T12:02:18.789Z,36.22
2024-01-25T12:03:18.748Z,38.56
2024-01-25T12:04:18.930Z,40.88
2024-01-25T12:05:18.972Z,40.94
2024-01-25T12:06:18.929Z,41.00
2024-01-25T12:07:18.986Z,41.26
2024-01-25T12:08:18.863Z,41.11
2024-01-25T12:09:18.861Z,40.87
2024-01-25T12:10:19.026Z,41.45
2024-01-25T12:11:18.925Z,41.41
2024-01-25T12:12:18.963Z,41.35
2024-01-25T12:13:19.069Z,41.39
2024-01-25T12:14:19.090Z,41.45
2024-01-25T12:15:19.181Z,41.50
2024-01-25T12:16:19.240Z,41.46
2024-01-25T12:17:19.264Z,41.47
2024-01-25T12:18:19.401Z,41.44
2024-01-25T12:19:19.575Z,41.44
2024-01-25T12:20:19.578Z,41.39
2024-01-25T12:21:19.486Z,41.39
2024-01-25T12:22:19.598Z,41.31
2024-01-25T12:23:19.620Z,41.21
2024-01-25T12:24:19.662Z,41.18
2024-01-25T12:25:19.796Z,41.11
2024-01-25T12:26:19.827Z,41.05
2024-01-25T12:27:19.813Z,41.06
2024-01-25T12:28:19.888Z,40.97
2024-01-25T12:29:19.903Z,40.87
2024-01-25T12:30:19.960Z,40.82
2024-01-25T12:31:20.013Z,40.71
2024-01-25T12:32:20.021Z,40.58
2024-01-25T12:33:21.296Z,40.52
2024-01-25T12:34:20.208Z,40.38
2024-01-25T12:35:20.290Z,40.36
2024-01-25T12:36:20.263Z,40.31
2024-01-25T12:37:20.276Z,40.12
2024-01-25T12:38:20.265Z,39.75
2024-01-25T12:39:20.960Z,39.63
2024-01-25T12:40:20.436Z,39.49
2024-01-25T12:41:20.457Z,38.86
2024-01-25T12:42:20.395Z,39.35
2024-01-25T12:43:20.466Z,39.05
2024-01-25T12:44:20.418Z,39.19
2024-01-25T12:45:20.463Z,39.24
2024-01-25T12:46:26.547Z,39.16
2024-01-25T12:47:21.529Z,39.02
2024-01-25T12:48:20.507Z,39.03
2024-01-25T12:49:20.456Z,38.93
2024-01-25T12:50:20.453Z,38.92
2024-01-25T12:51:20.516Z,39.01
2024-01-25T12:52:20.487Z,39.00
2024-01-25T12:53:20.472Z,38.89
2024-01-25T12:54:20.532Z,38.80
2024-01-25T12:55:20.459Z,38.84
2024-01-25T12:56:20.493Z,38.82
2024-01-25T12:57:20.529Z,38.80
2024-01-25T12:58:20.469Z,38.78
2024-01-25T12:59:20.474Z,38.82